sensor_id;sensor_type;location;lat;lon;timestamp;P1;durP1;ratioP1;P2;durP2;ratioP2
39218;SDS011;24934;52.752;6.964;2023-12-22T00:02:24;59.50;;;21.40;;
39218;SDS011;24934;52.752;6.964;2023-12-22T00:04:50;52.73;;;19.30;;
39218;SDS011;24934;52.752;6.964;2023-12-22T00:07:16;40.70;;;18.63;;
39218;SDS011;24934;52.752;6.964;2023-12-22T00:09:45;29.90;;;17.87;;
39218;SDS011;24934;52.752;6.964;2023-12-22T00:12:11;29.27;;;17.97;;
39218;SDS011;24934;52.752;6.964;2023-12-22T00:14:37;36.63;;;18.27;;
39218;SDS011;24934;52.752;6.964;2023-12-22T00:17:05;35.20;;;18.20;;
39218;SDS011;24934;52.752;6.964;2023-12-22T00:19:31;38.27;;;19.20;;
39218;SDS011;24934;52.752;6.964;2023-12-22T00:21:57;42.97;;;19.70;;
39218;SDS011;24934;52.752;6.964;2023-12-22T00:24:23;47.50;;;20.00;;
39218;SDS011;24934;52.752;6.964;2023-12-22T00:26:49;46.77;;;20.13;;
39218;SDS011;24934;52.752;6.964;2023-12-22T00:29:15;45.63;;;21.07;;
39218;SDS011;24934;52.752;6.964;2023-12-22T00:31:41;47.03;;;20.40;;
39218;SDS011;24934;52.752;6.964;2023-12-22T00:34:07;41.87;;;20.13;;
39218;SDS011;24934;52.752;6.964;2023-12-22T00:36:33;44.80;;;20.03;;
39218;SDS011;24934;52.752;6.964;2023-12-22T00:38:59;49.20;;;20.47;;
39218;SDS011;24934;52.752;6.964;2023-12-22T00:41:28;44.87;;;20.13;;
39218;SDS011;24934;52.752;6.964;2023-12-22T00:43:54;42.93;;;19.97;;
39218;SDS011;24934;52.752;6.964;2023-12-22T00:46:20;45.40;;;20.13;;
39218;SDS011;24934;52.752;6.964;2023-12-22T00:48:46;43.17;;;20.13;;
39218;SDS011;24934;52.752;6.964;2023-12-22T00:51:12;51.77;;;20.73;;
39218;SDS011;24934;52.752;6.964;2023-12-22T00:53:38;41.50;;;19.73;;
39218;SDS011;24934;52.752;6.964;2023-12-22T00:56:04;45.10;;;21.00;;
39218;SDS011;24934;52.752;6.964;2023-12-22T00:58:31;48.50;;;19.67;;
39218;SDS011;24934;52.752;6.964;2023-12-22T01:00:57;44.07;;;19.43;;
39218;SDS011;24934;52.752;6.964;2023-12-22T01:03:23;38.67;;;19.23;;
39218;SDS011;24934;52.752;6.964;2023-12-22T01:05:49;50.17;;;19.23;;
39218;SDS011;24934;52.752;6.964;2023-12-22T01:08:15;46.60;;;19.00;;
39218;SDS011;24934;52.752;6.964;2023-12-22T01:10:41;48.50;;;19.27;;
39218;SDS011;24934;52.752;6.964;2023-12-22T01:13:07;39.50;;;21.63;;
39218;SDS011;24934;52.752;6.964;2023-12-22T01:15:33;45.23;;;21.33;;
39218;SDS011;24934;52.752;6.964;2023-12-22T01:17:59;36.07;;;20.90;;
39218;SDS011;24934;52.752;6.964;2023-12-22T01:20:28;42.37;;;20.40;;
39218;SDS011;24934;52.752;6.964;2023-12-22T01:22:54;41.83;;;20.80;;
39218;SDS011;24934;52.752;6.964;2023-12-22T01:25:20;48.73;;;21.47;;
39218;SDS011;24934;52.752;6.964;2023-12-22T01:27:46;39.80;;;20.77;;
39218;SDS011;24934;52.752;6.964;2023-12-22T01:30:13;39.47;;;21.43;;
39218;SDS011;24934;52.752;6.964;2023-12-22T01:32:39;44.10;;;21.03;;
39218;SDS011;24934;52.752;6.964;2023-12-22T01:35:05;38.07;;;21.23;;
39218;SDS011;24934;52.752;6.964;2023-12-22T01:37:35;41.27;;;21.30;;
39218;SDS011;24934;52.752;6.964;2023-12-22T01:40:02;40.90;;;21.90;;
39218;SDS011;24934;52.752;6.964;2023-12-22T01:42:28;47.50;;;21.57;;
39218;SDS011;24934;52.752;6.964;2023-12-22T01:44:54;39.33;;;21.33;;
39218;SDS011;24934;52.752;6.964;2023-12-22T01:47:20;40.73;;;21.90;;
39218;SDS011;24934;52.752;6.964;2023-12-22T01:49:47;41.60;;;21.67;;
39218;SDS011;24934;52.752;6.964;2023-12-22T01:52:13;35.90;;;20.70;;
39218;SDS011;24934;52.752;6.964;2023-12-22T01:54:40;55.60;;;21.53;;
39218;SDS011;24934;52.752;6.964;2023-12-22T01:57:06;36.50;;;20.27;;
39218;SDS011;24934;52.752;6.964;2023-12-22T01:59:32;37.57;;;19.73;;
39218;SDS011;24934;52.752;6.964;2023-12-22T02:02:02;41.23;;;20.33;;
39218;SDS011;24934;52.752;6.964;2023-12-22T02:04:29;41.17;;;19.73;;
39218;SDS011;24934;52.752;6.964;2023-12-22T02:06:57;32.57;;;19.83;;
39218;SDS011;24934;52.752;6.964;2023-12-22T02:09:24;41.07;;;20.23;;
39218;SDS011;24934;52.752;6.964;2023-12-22T02:11:50;38.67;;;19.60;;
39218;SDS011;24934;52.752;6.964;2023-12-22T02:14:16;33.83;;;19.40;;
39218;SDS011;24934;52.752;6.964;2023-12-22T02:19:15;42.10;;;19.30;;
39218;SDS011;24934;52.752;6.964;2023-12-22T02:22:00;32.00;;;18.93;;
39218;SDS011;24934;52.752;6.964;2023-12-22T02:24:26;38.60;;;19.50;;
39218;SDS011;24934;52.752;6.964;2023-12-22T02:26:52;41.57;;;20.00;;
39218;SDS011;24934;52.752;6.964;2023-12-22T02:29:21;35.67;;;19.87;;
39218;SDS011;24934;52.752;6.964;2023-12-22T02:31:49;43.60;;;19.77;;
39218;SDS011;24934;52.752;6.964;2023-12-22T02:34:18;34.70;;;20.07;;
39218;SDS011;24934;52.752;6.964;2023-12-22T02:36:45;37.03;;;19.70;;
39218;SDS011;24934;52.752;6.964;2023-12-22T02:39:11;39.10;;;19.73;;
39218;SDS011;24934;52.752;6.964;2023-12-22T02:41:38;37.20;;;20.30;;
39218;SDS011;24934;52.752;6.964;2023-12-22T02:44:04;39.63;;;20.23;;
39218;SDS011;24934;52.752;6.964;2023-12-22T02:46:31;36.07;;;19.97;;
39218;SDS011;24934;52.752;6.964;2023-12-22T02:48:56;35.63;;;19.33;;
39218;SDS011;24934;52.752;6.964;2023-12-22T02:51:22;32.13;;;19.47;;
39218;SDS011;24934;52.752;6.964;2023-12-22T02:53:48;40.53;;;20.57;;
39218;SDS011;24934;52.752;6.964;2023-12-22T02:56:17;38.23;;;20.40;;
39218;SDS011;24934;52.752;6.964;2023-12-22T02:58:43;44.03;;;21.67;;
39218;SDS011;24934;52.752;6.964;2023-12-22T03:01:09;46.23;;;21.30;;
39218;SDS011;24934;52.752;6.964;2023-12-22T03:03:35;47.17;;;21.70;;
39218;SDS011;24934;52.752;6.964;2023-12-22T03:06:01;41.97;;;21.13;;
39218;SDS011;24934;52.752;6.964;2023-12-22T03:08:27;45.13;;;21.90;;
39218;SDS011;24934;52.752;6.964;2023-12-22T03:10:53;51.03;;;21.40;;
39218;SDS011;24934;52.752;6.964;2023-12-22T03:13:19;40.53;;;21.53;;
39218;SDS011;24934;52.752;6.964;2023-12-22T03:15:47;38.33;;;21.90;;
39218;SDS011;24934;52.752;6.964;2023-12-22T03:18:14;43.67;;;22.07;;
39218;SDS011;24934;52.752;6.964;2023-12-22T03:20:40;33.73;;;20.90;;
39218;SDS011;24934;52.752;6.964;2023-12-22T03:23:06;36.10;;;20.57;;
39218;SDS011;24934;52.752;6.964;2023-12-22T03:25:32;34.90;;;20.00;;
39218;SDS011;24934;52.752;6.964;2023-12-22T03:27:58;34.57;;;20.70;;
39218;SDS011;24934;52.752;6.964;2023-12-22T03:30:24;39.73;;;20.30;;
39218;SDS011;24934;52.752;6.964;2023-12-22T03:32:50;28.33;;;20.50;;
39218;SDS011;24934;52.752;6.964;2023-12-22T03:35:15;35.17;;;20.57;;
39218;SDS011;24934;52.752;6.964;2023-12-22T03:37:42;29.17;;;19.97;;
39218;SDS011;24934;52.752;6.964;2023-12-22T03:40:08;22.97;;;19.13;;
39218;SDS011;24934;52.752;6.964;2023-12-22T03:42:34;34.30;;;19.83;;
39218;SDS011;24934;52.752;6.964;2023-12-22T03:45:01;28.67;;;19.13;;
39218;SDS011;24934;52.752;6.964;2023-12-22T03:47:27;22.73;;;18.50;;
39218;SDS011;24934;52.752;6.964;2023-12-22T03:49:53;23.97;;;19.43;;
39218;SDS011;24934;52.752;6.964;2023-12-22T03:52:19;26.43;;;19.57;;
39218;SDS011;24934;52.752;6.964;2023-12-22T03:54:45;23.03;;;18.70;;
39218;SDS011;24934;52.752;6.964;2023-12-22T03:57:11;26.43;;;19.03;;
39218;SDS011;24934;52.752;6.964;2023-12-22T03:59:37;29.60;;;18.30;;
39218;SDS011;24934;52.752;6.964;2023-12-22T04:02:03;28.23;;;18.97;;
39218;SDS011;24934;52.752;6.964;2023-12-22T04:04:29;31.93;;;18.57;;
39218;SDS011;24934;52.752;6.964;2023-12-22T04:06:55;28.73;;;18.90;;
39218;SDS011;24934;52.752;6.964;2023-12-22T04:09:21;30.60;;;19.30;;
39218;SDS011;24934;52.752;6.964;2023-12-22T04:11:47;26.43;;;19.10;;
39218;SDS011;24934;52.752;6.964;2023-12-22T04:14:13;31.00;;;18.87;;
39218;SDS011;24934;52.752;6.964;2023-12-22T04:16:40;34.50;;;18.50;;
39218;SDS011;24934;52.752;6.964;2023-12-22T04:19:06;31.03;;;19.33;;
39218;SDS011;24934;52.752;6.964;2023-12-22T04:21:32;32.07;;;19.20;;
39218;SDS011;24934;52.752;6.964;2023-12-22T04:23:58;25.60;;;18.43;;
39218;SDS011;24934;52.752;6.964;2023-12-22T04:26:24;34.03;;;18.67;;
39218;SDS011;24934;52.752;6.964;2023-12-22T04:28:50;33.57;;;19.40;;
39218;SDS011;24934;52.752;6.964;2023-12-22T04:31:16;29.50;;;19.40;;
39218;SDS011;24934;52.752;6.964;2023-12-22T04:33:42;33.27;;;18.93;;
39218;SDS011;24934;52.752;6.964;2023-12-22T04:36:08;35.03;;;19.77;;
39218;SDS011;24934;52.752;6.964;2023-12-22T04:38:37;34.83;;;19.27;;
39218;SDS011;24934;52.752;6.964;2023-12-22T04:41:05;32.13;;;20.03;;
39218;SDS011;24934;52.752;6.964;2023-12-22T04:43:31;31.60;;;20.73;;
39218;SDS011;24934;52.752;6.964;2023-12-22T04:45:57;43.07;;;20.17;;
39218;SDS011;24934;52.752;6.964;2023-12-22T04:48:23;36.23;;;20.53;;
39218;SDS011;24934;52.752;6.964;2023-12-22T04:50:49;37.83;;;20.27;;
39218;SDS011;24934;52.752;6.964;2023-12-22T04:53:15;32.63;;;19.67;;
39218;SDS011;24934;52.752;6.964;2023-12-22T04:55:41;38.23;;;19.93;;
39218;SDS011;24934;52.752;6.964;2023-12-22T04:58:07;31.20;;;19.97;;
39218;SDS011;24934;52.752;6.964;2023-12-22T05:00:33;30.40;;;19.73;;
39218;SDS011;24934;52.752;6.964;2023-12-22T05:02:59;35.07;;;20.23;;
39218;SDS011;24934;52.752;6.964;2023-12-22T05:05:25;35.27;;;19.60;;
39218;SDS011;24934;52.752;6.964;2023-12-22T05:07:51;27.17;;;18.97;;
39218;SDS011;24934;52.752;6.964;2023-12-22T05:10:17;38.90;;;19.80;;
39218;SDS011;24934;52.752;6.964;2023-12-22T05:12:43;36.13;;;19.53;;
39218;SDS011;24934;52.752;6.964;2023-12-22T05:15:09;30.50;;;20.33;;
39218;SDS011;24934;52.752;6.964;2023-12-22T05:17:35;33.73;;;20.70;;
39218;SDS011;24934;52.752;6.964;2023-12-22T05:20:01;35.50;;;20.07;;
39218;SDS011;24934;52.752;6.964;2023-12-22T05:22:27;34.73;;;20.70;;
39218;SDS011;24934;52.752;6.964;2023-12-22T05:24:57;37.23;;;20.43;;
39218;SDS011;24934;52.752;6.964;2023-12-22T05:27:23;34.33;;;19.60;;
39218;SDS011;24934;52.752;6.964;2023-12-22T05:29:50;36.50;;;19.43;;
39218;SDS011;24934;52.752;6.964;2023-12-22T05:32:16;39.37;;;19.60;;
39218;SDS011;24934;52.752;6.964;2023-12-22T05:34:42;41.20;;;19.73;;
39218;SDS011;24934;52.752;6.964;2023-12-22T05:37:08;37.07;;;19.00;;
39218;SDS011;24934;52.752;6.964;2023-12-22T05:39:34;33.77;;;19.43;;
39218;SDS011;24934;52.752;6.964;2023-12-22T05:42:00;36.87;;;20.07;;
39218;SDS011;24934;52.752;6.964;2023-12-22T05:44:26;36.07;;;19.40;;
39218;SDS011;24934;52.752;6.964;2023-12-22T05:46:55;38.10;;;19.43;;
39218;SDS011;24934;52.752;6.964;2023-12-22T05:49:21;29.77;;;19.30;;
39218;SDS011;24934;52.752;6.964;2023-12-22T05:51:48;36.10;;;19.17;;
39218;SDS011;24934;52.752;6.964;2023-12-22T05:54:15;28.77;;;18.53;;
39218;SDS011;24934;52.752;6.964;2023-12-22T05:56:44;39.03;;;19.20;;
39218;SDS011;24934;52.752;6.964;2023-12-22T05:59:10;38.03;;;19.00;;
39218;SDS011;24934;52.752;6.964;2023-12-22T06:01:36;27.20;;;18.70;;
39218;SDS011;24934;52.752;6.964;2023-12-22T06:04:02;33.47;;;18.80;;
39218;SDS011;24934;52.752;6.964;2023-12-22T06:06:28;35.83;;;17.63;;
39218;SDS011;24934;52.752;6.964;2023-12-22T06:08:56;34.80;;;18.70;;
39218;SDS011;24934;52.752;6.964;2023-12-22T06:11:23;30.23;;;18.27;;
39218;SDS011;24934;52.752;6.964;2023-12-22T06:13:49;35.70;;;17.80;;
39218;SDS011;24934;52.752;6.964;2023-12-22T06:16:15;31.00;;;18.10;;
39218;SDS011;24934;52.752;6.964;2023-12-22T06:18:43;29.70;;;17.13;;
39218;SDS011;24934;52.752;6.964;2023-12-22T06:21:09;25.57;;;17.47;;
39218;SDS011;24934;52.752;6.964;2023-12-22T06:23:36;31.23;;;17.67;;
39218;SDS011;24934;52.752;6.964;2023-12-22T06:26:07;34.30;;;17.43;;
39218;SDS011;24934;52.752;6.964;2023-12-22T06:28:33;31.17;;;17.37;;
39218;SDS011;24934;52.752;6.964;2023-12-22T06:31:01;37.50;;;18.00;;
39218;SDS011;24934;52.752;6.964;2023-12-22T06:33:28;38.37;;;17.50;;
39218;SDS011;24934;52.752;6.964;2023-12-22T06:35:54;33.13;;;17.87;;
39218;SDS011;24934;52.752;6.964;2023-12-22T06:38:20;38.00;;;18.17;;
39218;SDS011;24934;52.752;6.964;2023-12-22T06:40:46;30.13;;;17.57;;
39218;SDS011;24934;52.752;6.964;2023-12-22T06:43:12;36.37;;;18.57;;
39218;SDS011;24934;52.752;6.964;2023-12-22T06:45:39;33.03;;;16.80;;
39218;SDS011;24934;52.752;6.964;2023-12-22T06:48:06;28.93;;;17.47;;
39218;SDS011;24934;52.752;6.964;2023-12-22T06:50:32;29.07;;;17.43;;
39218;SDS011;24934;52.752;6.964;2023-12-22T06:52:58;35.80;;;17.67;;
39218;SDS011;24934;52.752;6.964;2023-12-22T06:55:24;34.90;;;17.53;;
39218;SDS011;24934;52.752;6.964;2023-12-22T06:57:51;31.57;;;18.47;;
39218;SDS011;24934;52.752;6.964;2023-12-22T07:00:17;26.40;;;17.13;;
39218;SDS011;24934;52.752;6.964;2023-12-22T07:02:43;41.00;;;18.10;;
39218;SDS011;24934;52.752;6.964;2023-12-22T07:07:38;29.57;;;18.07;;
39218;SDS011;24934;52.752;6.964;2023-12-22T07:10:04;27.60;;;18.37;;
39218;SDS011;24934;52.752;6.964;2023-12-22T07:12:30;28.20;;;18.30;;
39218;SDS011;24934;52.752;6.964;2023-12-22T07:14:56;34.93;;;18.73;;
39218;SDS011;24934;52.752;6.964;2023-12-22T07:17:22;27.70;;;18.20;;
39218;SDS011;24934;52.752;6.964;2023-12-22T07:19:48;33.57;;;17.77;;
39218;SDS011;24934;52.752;6.964;2023-12-22T07:22:17;34.60;;;17.00;;
39218;SDS011;24934;52.752;6.964;2023-12-22T07:24:43;34.37;;;17.83;;
39218;SDS011;24934;52.752;6.964;2023-12-22T07:27:09;31.10;;;17.33;;
39218;SDS011;24934;52.752;6.964;2023-12-22T07:29:35;35.53;;;17.40;;
39218;SDS011;24934;52.752;6.964;2023-12-22T07:32:01;27.83;;;16.50;;
39218;SDS011;24934;52.752;6.964;2023-12-22T07:34:27;29.67;;;17.10;;
39218;SDS011;24934;52.752;6.964;2023-12-22T07:36:53;30.07;;;16.83;;
39218;SDS011;24934;52.752;6.964;2023-12-22T07:39:20;26.13;;;17.80;;
39218;SDS011;24934;52.752;6.964;2023-12-22T07:41:47;24.50;;;16.30;;
39218;SDS011;24934;52.752;6.964;2023-12-22T07:44:13;35.20;;;18.23;;
39218;SDS011;24934;52.752;6.964;2023-12-22T07:46:39;33.70;;;17.67;;
39218;SDS011;24934;52.752;6.964;2023-12-22T07:49:05;32.40;;;17.57;;
39218;SDS011;24934;52.752;6.964;2023-12-22T07:51:31;28.93;;;18.03;;
39218;SDS011;24934;52.752;6.964;2023-12-22T07:53:57;28.13;;;18.07;;
39218;SDS011;24934;52.752;6.964;2023-12-22T07:56:23;27.67;;;18.23;;
39218;SDS011;24934;52.752;6.964;2023-12-22T07:58:50;36.50;;;17.60;;
39218;SDS011;24934;52.752;6.964;2023-12-22T08:01:16;29.53;;;16.67;;
39218;SDS011;24934;52.752;6.964;2023-12-22T08:03:41;31.50;;;17.03;;
39218;SDS011;24934;52.752;6.964;2023-12-22T08:06:07;30.60;;;16.90;;
39218;SDS011;24934;52.752;6.964;2023-12-22T08:08:33;26.23;;;15.80;;
39218;SDS011;24934;52.752;6.964;2023-12-22T08:11:00;34.83;;;16.67;;
39218;SDS011;24934;52.752;6.964;2023-12-22T08:13:26;31.23;;;16.03;;
39218;SDS011;24934;52.752;6.964;2023-12-22T08:15:52;37.83;;;16.20;;
39218;SDS011;24934;52.752;6.964;2023-12-22T08:18:18;33.73;;;16.83;;
39218;SDS011;24934;52.752;6.964;2023-12-22T08:20:44;30.20;;;15.50;;
39218;SDS011;24934;52.752;6.964;2023-12-22T08:23:13;36.20;;;16.83;;
39218;SDS011;24934;52.752;6.964;2023-12-22T08:25:39;32.60;;;15.70;;
39218;SDS011;24934;52.752;6.964;2023-12-22T08:28:06;32.40;;;16.10;;
39218;SDS011;24934;52.752;6.964;2023-12-22T08:30:32;34.47;;;16.53;;
39218;SDS011;24934;52.752;6.964;2023-12-22T08:32:58;32.80;;;15.53;;
39218;SDS011;24934;52.752;6.964;2023-12-22T08:35:24;32.27;;;15.60;;
39218;SDS011;24934;52.752;6.964;2023-12-22T08:37:50;38.47;;;16.40;;
39218;SDS011;24934;52.752;6.964;2023-12-22T08:40:16;33.10;;;16.47;;
39218;SDS011;24934;52.752;6.964;2023-12-22T08:42:43;34.73;;;15.47;;
39218;SDS011;24934;52.752;6.964;2023-12-22T08:45:12;33.20;;;15.73;;
39218;SDS011;24934;52.752;6.964;2023-12-22T08:47:41;34.30;;;15.00;;
39218;SDS011;24934;52.752;6.964;2023-12-22T08:50:07;28.10;;;14.67;;
39218;SDS011;24934;52.752;6.964;2023-12-22T08:52:35;26.70;;;14.57;;
39218;SDS011;24934;52.752;6.964;2023-12-22T08:55:01;21.43;;;13.83;;
39218;SDS011;24934;52.752;6.964;2023-12-22T08:57:27;31.20;;;14.80;;
39218;SDS011;24934;52.752;6.964;2023-12-22T08:59:53;29.77;;;16.67;;
39218;SDS011;24934;52.752;6.964;2023-12-22T09:02:19;28.13;;;18.43;;
39218;SDS011;24934;52.752;6.964;2023-12-22T09:04:45;31.63;;;18.87;;
39218;SDS011;24934;52.752;6.964;2023-12-22T09:07:11;36.27;;;19.17;;
39218;SDS011;24934;52.752;6.964;2023-12-22T09:09:37;34.13;;;19.40;;
39218;SDS011;24934;52.752;6.964;2023-12-22T09:12:05;27.57;;;18.67;;
39218;SDS011;24934;52.752;6.964;2023-12-22T09:14:31;28.00;;;19.37;;
39218;SDS011;24934;52.752;6.964;2023-12-22T09:16:57;23.50;;;18.40;;
39218;SDS011;24934;52.752;6.964;2023-12-22T09:19:23;23.93;;;18.73;;
39218;SDS011;24934;52.752;6.964;2023-12-22T09:21:49;23.40;;;18.40;;
39218;SDS011;24934;52.752;6.964;2023-12-22T09:24:18;23.67;;;18.53;;
39218;SDS011;24934;52.752;6.964;2023-12-22T09:26:44;22.23;;;18.60;;
39218;SDS011;24934;52.752;6.964;2023-12-22T09:29:10;20.13;;;17.97;;
39218;SDS011;24934;52.752;6.964;2023-12-22T09:31:36;20.37;;;18.37;;
39218;SDS011;24934;52.752;6.964;2023-12-22T09:34:02;23.07;;;18.90;;
39218;SDS011;24934;52.752;6.964;2023-12-22T09:36:28;23.40;;;19.40;;
39218;SDS011;24934;52.752;6.964;2023-12-22T09:38:54;25.40;;;18.90;;
39218;SDS011;24934;52.752;6.964;2023-12-22T09:41:20;22.47;;;18.63;;
39218;SDS011;24934;52.752;6.964;2023-12-22T09:43:46;20.20;;;18.17;;
39218;SDS011;24934;52.752;6.964;2023-12-22T09:46:16;20.57;;;18.40;;
39218;SDS011;24934;52.752;6.964;2023-12-22T09:48:43;21.00;;;18.83;;
39218;SDS011;24934;52.752;6.964;2023-12-22T09:51:11;20.23;;;18.17;;
39218;SDS011;24934;52.752;6.964;2023-12-22T09:53:38;20.53;;;18.60;;
39218;SDS011;24934;52.752;6.964;2023-12-22T09:56:04;20.23;;;18.13;;
39218;SDS011;24934;52.752;6.964;2023-12-22T09:58:31;19.90;;;17.80;;
39218;SDS011;24934;52.752;6.964;2023-12-22T10:01:00;23.07;;;18.57;;
39218;SDS011;24934;52.752;6.964;2023-12-22T10:03:30;20.80;;;18.23;;
39218;SDS011;24934;52.752;6.964;2023-12-22T10:05:56;19.83;;;17.83;;
39218;SDS011;24934;52.752;6.964;2023-12-22T10:08:22;20.30;;;18.17;;
39218;SDS011;24934;52.752;6.964;2023-12-22T10:10:48;19.53;;;17.63;;
39218;SDS011;24934;52.752;6.964;2023-12-22T10:13:17;20.23;;;18.10;;
39218;SDS011;24934;52.752;6.964;2023-12-22T10:15:43;19.80;;;17.80;;
39218;SDS011;24934;52.752;6.964;2023-12-22T10:18:11;20.37;;;17.97;;
39218;SDS011;24934;52.752;6.964;2023-12-22T10:20:38;20.43;;;18.03;;
39218;SDS011;24934;52.752;6.964;2023-12-22T10:23:04;23.83;;;18.33;;
39218;SDS011;24934;52.752;6.964;2023-12-22T10:25:30;20.20;;;18.13;;
39218;SDS011;24934;52.752;6.964;2023-12-22T10:27:57;19.57;;;17.47;;
39218;SDS011;24934;52.752;6.964;2023-12-22T10:30:23;20.37;;;18.07;;
39218;SDS011;24934;52.752;6.964;2023-12-22T10:32:50;24.23;;;17.77;;
39218;SDS011;24934;52.752;6.964;2023-12-22T10:35:22;23.93;;;18.00;;
39218;SDS011;24934;52.752;6.964;2023-12-22T10:37:48;21.00;;;17.27;;
39218;SDS011;24934;52.752;6.964;2023-12-22T10:40:18;20.97;;;17.50;;
39218;SDS011;24934;52.752;6.964;2023-12-22T10:42:44;20.47;;;17.53;;
39218;SDS011;24934;52.752;6.964;2023-12-22T10:45:11;24.47;;;17.67;;
39218;SDS011;24934;52.752;6.964;2023-12-22T10:47:41;24.07;;;17.70;;
39218;SDS011;24934;52.752;6.964;2023-12-22T10:50:07;21.20;;;17.70;;
39218;SDS011;24934;52.752;6.964;2023-12-22T10:52:33;22.73;;;16.90;;
39218;SDS011;24934;52.752;6.964;2023-12-22T10:54:59;27.27;;;17.07;;
39218;SDS011;24934;52.752;6.964;2023-12-22T10:57:26;22.03;;;17.53;;
39218;SDS011;24934;52.752;6.964;2023-12-22T10:59:52;21.53;;;16.87;;
39218;SDS011;24934;52.752;6.964;2023-12-22T11:02:19;24.00;;;17.07;;
39218;SDS011;24934;52.752;6.964;2023-12-22T11:04:47;24.77;;;16.83;;
39218;SDS011;24934;52.752;6.964;2023-12-22T11:07:16;28.23;;;17.43;;
39218;SDS011;24934;52.752;6.964;2023-12-22T11:09:44;28.60;;;17.07;;
39218;SDS011;24934;52.752;6.964;2023-12-22T11:12:11;24.03;;;16.90;;
39218;SDS011;24934;52.752;6.964;2023-12-22T11:14:37;26.90;;;16.60;;
39218;SDS011;24934;52.752;6.964;2023-12-22T11:17:04;20.83;;;16.30;;
39218;SDS011;24934;52.752;6.964;2023-12-22T11:19:31;22.00;;;16.27;;
39218;SDS011;24934;52.752;6.964;2023-12-22T11:22:00;25.23;;;16.17;;
39218;SDS011;24934;52.752;6.964;2023-12-22T11:24:28;25.73;;;15.77;;
39218;SDS011;24934;52.752;6.964;2023-12-22T11:26:55;26.90;;;16.47;;
39218;SDS011;24934;52.752;6.964;2023-12-22T11:29:26;20.20;;;16.57;;
39218;SDS011;24934;52.752;6.964;2023-12-22T11:31:54;20.63;;;16.07;;
39218;SDS011;24934;52.752;6.964;2023-12-22T11:34:21;25.53;;;16.47;;
39218;SDS011;24934;52.752;6.964;2023-12-22T11:36:47;20.57;;;16.17;;
39218;SDS011;24934;52.752;6.964;2023-12-22T11:39:14;17.93;;;16.00;;
39218;SDS011;24934;52.752;6.964;2023-12-22T11:41:40;21.47;;;16.53;;
39218;SDS011;24934;52.752;6.964;2023-12-22T11:44:07;20.23;;;16.10;;
39218;SDS011;24934;52.752;6.964;2023-12-22T11:46:33;18.67;;;16.50;;
39218;SDS011;24934;52.752;6.964;2023-12-22T11:48:59;18.90;;;15.60;;
39218;SDS011;24934;52.752;6.964;2023-12-22T11:51:25;21.57;;;16.23;;
39218;SDS011;24934;52.752;6.964;2023-12-22T11:53:56;16.43;;;14.77;;
39218;SDS011;24934;52.752;6.964;2023-12-22T11:56:22;16.03;;;14.30;;
39218;SDS011;24934;52.752;6.964;2023-12-22T11:58:51;16.17;;;14.43;;
39218;SDS011;24934;52.752;6.964;2023-12-22T12:01:23;15.23;;;13.63;;
39218;SDS011;24934;52.752;6.964;2023-12-22T12:08:54;17.13;;;14.07;;
39218;SDS011;24934;52.752;6.964;2023-12-22T12:11:21;17.17;;;13.87;;
39218;SDS011;24934;52.752;6.964;2023-12-22T12:13:47;15.10;;;13.60;;
39218;SDS011;24934;52.752;6.964;2023-12-22T12:16:14;15.13;;;13.23;;
39218;SDS011;24934;52.752;6.964;2023-12-22T12:18:41;14.80;;;13.20;;
39218;SDS011;24934;52.752;6.964;2023-12-22T12:21:07;16.07;;;13.00;;
39218;SDS011;24934;52.752;6.964;2023-12-22T12:23:34;17.80;;;12.90;;
39218;SDS011;24934;52.752;6.964;2023-12-22T12:26:00;16.47;;;13.70;;
39218;SDS011;24934;52.752;6.964;2023-12-22T12:28:28;15.10;;;13.17;;
39218;SDS011;24934;52.752;6.964;2023-12-22T12:31:12;14.30;;;12.90;;
39218;SDS011;24934;52.752;6.964;2023-12-22T12:33:38;14.83;;;12.97;;
39218;SDS011;24934;52.752;6.964;2023-12-22T12:36:05;19.53;;;13.03;;
39218;SDS011;24934;52.752;6.964;2023-12-22T12:41:16;16.10;;;13.33;;
39218;SDS011;24934;52.752;6.964;2023-12-22T12:43:48;17.33;;;12.60;;
39218;SDS011;24934;52.752;6.964;2023-12-22T12:46:15;14.03;;;12.50;;
39218;SDS011;24934;52.752;6.964;2023-12-22T12:48:41;17.90;;;12.63;;
39218;SDS011;24934;52.752;6.964;2023-12-22T12:51:07;13.27;;;11.90;;
39218;SDS011;24934;52.752;6.964;2023-12-22T12:53:33;15.47;;;12.37;;
39218;SDS011;24934;52.752;6.964;2023-12-22T12:56:02;12.87;;;11.60;;
39218;SDS011;24934;52.752;6.964;2023-12-22T12:58:31;17.30;;;11.73;;
39218;SDS011;24934;52.752;6.964;2023-12-22T13:01:07;14.13;;;11.67;;
39218;SDS011;24934;52.752;6.964;2023-12-22T13:03:54;15.67;;;11.70;;
39218;SDS011;24934;52.752;6.964;2023-12-22T13:06:21;16.30;;;11.90;;
39218;SDS011;24934;52.752;6.964;2023-12-22T13:08:48;18.50;;;12.80;;
39218;SDS011;24934;52.752;6.964;2023-12-22T13:11:15;15.13;;;13.37;;
39218;SDS011;24934;52.752;6.964;2023-12-22T13:13:44;18.80;;;13.73;;
39218;SDS011;24934;52.752;6.964;2023-12-22T13:16:10;14.77;;;13.27;;
39218;SDS011;24934;52.752;6.964;2023-12-22T13:18:36;20.43;;;13.63;;
39218;SDS011;24934;52.752;6.964;2023-12-22T13:21:11;18.60;;;15.80;;
39218;SDS011;24934;52.752;6.964;2023-12-22T13:23:37;19.47;;;15.17;;
39218;SDS011;24934;52.752;6.964;2023-12-22T13:26:03;16.77;;;14.90;;
39218;SDS011;24934;52.752;6.964;2023-12-22T13:28:29;18.23;;;15.60;;
39218;SDS011;24934;52.752;6.964;2023-12-22T13:30:58;17.93;;;14.90;;
39218;SDS011;24934;52.752;6.964;2023-12-22T13:33:24;18.30;;;14.73;;
39218;SDS011;24934;52.752;6.964;2023-12-22T13:35:59;17.93;;;14.70;;
39218;SDS011;24934;52.752;6.964;2023-12-22T13:38:25;16.00;;;14.37;;
39218;SDS011;24934;52.752;6.964;2023-12-22T13:40:51;18.80;;;15.10;;
39218;SDS011;24934;52.752;6.964;2023-12-22T13:43:17;17.97;;;15.13;;
39218;SDS011;24934;52.752;6.964;2023-12-22T13:45:49;17.47;;;14.77;;
39218;SDS011;24934;52.752;6.964;2023-12-22T13:48:16;20.57;;;14.70;;
39218;SDS011;24934;52.752;6.964;2023-12-22T13:50:42;16.33;;;14.60;;
39218;SDS011;24934;52.752;6.964;2023-12-22T13:53:08;21.53;;;15.37;;
39218;SDS011;24934;52.752;6.964;2023-12-22T13:55:34;17.73;;;14.97;;
39218;SDS011;24934;52.752;6.964;2023-12-22T13:58:05;18.87;;;15.63;;
39218;SDS011;24934;52.752;6.964;2023-12-22T14:00:31;17.10;;;15.20;;
39218;SDS011;24934;52.752;6.964;2023-12-22T14:02:57;20.63;;;15.93;;
39218;SDS011;24934;52.752;6.964;2023-12-22T14:05:23;21.23;;;16.10;;
39218;SDS011;24934;52.752;6.964;2023-12-22T14:07:49;19.23;;;15.60;;
39218;SDS011;24934;52.752;6.964;2023-12-22T14:10:15;17.03;;;15.10;;
39218;SDS011;24934;52.752;6.964;2023-12-22T14:12:44;18.83;;;16.30;;
39218;SDS011;24934;52.752;6.964;2023-12-22T14:15:11;22.93;;;16.70;;
39218;SDS011;24934;52.752;6.964;2023-12-22T14:17:40;18.60;;;16.60;;
39218;SDS011;24934;52.752;6.964;2023-12-22T14:20:09;21.70;;;16.87;;
39218;SDS011;24934;52.752;6.964;2023-12-22T14:22:36;19.43;;;15.80;;
39218;SDS011;24934;52.752;6.964;2023-12-22T14:25:02;18.30;;;16.30;;
39218;SDS011;24934;52.752;6.964;2023-12-22T14:27:30;20.53;;;15.77;;
39218;SDS011;24934;52.752;6.964;2023-12-22T14:29:56;23.20;;;15.70;;
39218;SDS011;24934;52.752;6.964;2023-12-22T14:32:23;20.23;;;15.43;;